< < Back
Terminal Aerodrome Forecast


Current Version              Previous Versions:   1  2  3  4  5  6  7  8  9  

Terminal Aerodrome Forecast

801
FTUS42 KJAX 300529
TAFSSI
TAF
KSSI 300529Z 3006/3106 VRB03KT P6SM SKC
     FM301800 15008KT P6SM VCTS BKN040CB=

Latest METAR

430
SAUS70 KWBC 300600 RRK
MTRSSI
METAR KSSI 300553Z AUTO 28004KT 10SM CLR 26/24 A2995 RMK AO2 SLP144
T02560244 10278 20256 58003


USA.gov is the U.S. government's official web portal to all federal, state and local government web resources and services.